Terminal Aerodrome Forecast
Issued by NWS Charleston, WV

Home | Current Version | Previous Version | Text Only | Print | Product List | Glossary On
Versions: 1 2 3 4 5 6 7 8 9 10 11 12 13 14 15 16 17 18 19 20 21 22 23 24
833
FTUS41 KRLX 251737
TAFBKW
TAF
KBKW 251737Z 2518/2618 24009KT P6SM OVC015
     FM251900 22010G16KT 3SM -SHRA OVC012
     FM252200 21009KT 2SM -RA OVC009
     FM260300 28014G27KT 4SM SHRA OVC011
     FM260600 28013G21KT P6SM OVC013
     FM261500 29011G18KT P6SM SCT019
     FM261600 29011G18KT P6SM SCT045=

USA.gov is the U.S. government's official web portal to all federal, state and local government web resources and services.